Time;durP1;ratioP1;P1;durP2;ratioP2;P2;SDS_P1;SDS_P2;PMS_P1;PMS_P2;Temp;Humidity;BMP_temperature;BMP_pressure;BME280_temperature;BME280_humidity;BME280_pressure;Samples;Min_cycle;Max_cycle;Signal;HPM_P1;HPM_P2
2023/09/09 00:00:40;;;;;;;7.35;4.78;;;22.50;99.90;;;;;;5023153;28;45112;-58
2023/09/09 00:03:07;;;;;;;5.93;4.22;;;22.50;99.90;;;;;;5018055;28;45294;-58
2023/09/09 00:05:34;;;;;;;7.38;4.68;;;22.50;99.90;;;;;;5022661;28;45108;-58
2023/09/09 00:08:01;;;;;;;7.03;4.60;;;22.60;99.90;;;;;;5023059;28;45179;-59
2023/09/09 00:10:29;;;;;;;6.05;4.10;;;22.60;99.90;;;;;;5021161;28;45118;-59
2023/09/09 00:12:56;;;;;;;4.68;3.65;;;22.60;99.90;;;;;;5020084;28;44668;-59
2023/09/09 00:15:25;;;;;;;6.15;4.35;;;22.60;99.90;;;;;;5013781;28;45088;-59
2023/09/09 00:17:52;;;;;;;4.05;3.30;;;22.60;99.90;;;;;;5020106;28;45431;-59
2023/09/09 00:20:19;;;;;;;6.80;4.35;;;22.60;99.90;;;;;;5012583;28;45143;-59
2023/09/09 00:22:45;;;;;;;7.53;4.18;;;22.60;99.90;;;;;;5011341;28;44640;-59
2023/09/09 00:25:12;;;;;;;4.47;3.50;;;22.60;99.90;;;;;;5022127;28;45336;-59
2023/09/09 00:27:39;;;;;;;4.90;3.97;;;22.60;99.90;;;;;;5018680;28;46258;-59
2023/09/09 00:30:07;;;;;;;6.25;4.30;;;22.60;99.90;;;;;;5023108;28;45129;-59
2023/09/09 00:32:35;;;;;;;6.32;4.20;;;22.50;99.90;;;;;;5024015;28;45076;-59
2023/09/09 00:35:02;;;;;;;7.38;4.50;;;22.50;99.90;;;;;;5025221;28;45254;-59
2023/09/09 00:37:28;;;;;;;7.93;4.35;;;22.50;99.90;;;;;;5023455;28;46396;-59
2023/09/09 00:39:55;;;;;;;5.75;4.68;;;22.40;99.90;;;;;;5025980;28;45204;-59
2023/09/09 00:42:22;;;;;;;9.98;4.85;;;22.30;99.90;;;;;;5020172;28;45088;-59
2023/09/09 00:44:50;;;;;;;9.55;4.72;;;22.30;99.90;;;;;;5024639;28;45065;-59
2023/09/09 00:47:17;;;;;;;7.93;4.32;;;22.20;99.90;;;;;;5023871;28;47074;-59
2023/09/09 00:49:46;;;;;;;5.68;3.95;;;22.30;99.90;;;;;;5025727;28;45141;-59
2023/09/09 00:52:12;;;;;;;6.25;3.90;;;22.30;99.90;;;;;;5023168;28;44602;-59
2023/09/09 00:54:39;;;;;;;6.40;4.13;;;22.30;99.90;;;;;;5022263;28;45227;-59
2023/09/09 00:57:06;;;;;;;5.00;4.32;;;22.30;99.90;;;;;;5022360;28;45251;-59
2023/09/09 00:59:33;;;;;;;6.65;4.22;;;22.30;99.90;;;;;;5022442;28;45694;-59
2023/09/09 01:02:01;;;;;;;8.27;4.75;;;22.40;99.90;;;;;;5013764;28;45105;-58
2023/09/09 01:04:28;;;;;;;6.45;4.97;;;22.40;99.90;;;;;;5018045;28;45453;-59
2023/09/09 01:06:57;;;;;;;8.35;4.60;;;22.20;99.90;;;;;;5017089;28;46334;-59
2023/09/09 01:09:23;;;;;;;7.70;5.10;;;22.30;99.90;;;;;;5023553;28;45398;-59
2023/09/09 01:11:50;;;;;;;9.10;4.88;;;22.20;99.90;;;;;;5018088;28;45205;-59
2023/09/09 01:14:17;;;;;;;5.20;4.68;;;22.10;99.90;;;;;;5020976;28;45040;-59
2023/09/09 01:16:44;;;;;;;6.72;4.50;;;22.00;99.90;;;;;;5022742;28;45285;-59
2023/09/09 01:19:13;;;;;;;6.18;4.80;;;22.10;99.90;;;;;;5024984;28;45187;-59
2023/09/09 01:21:41;;;;;;;6.28;3.97;;;22.00;99.90;;;;;;5019270;28;45211;-59
2023/09/09 01:24:09;;;;;;;6.97;5.13;;;22.00;99.90;;;;;;5022432;28;44664;-59
2023/09/09 01:26:37;;;;;;;6.57;4.68;;;22.10;99.90;;;;;;5019245;28;46360;-59
2023/09/09 01:29:03;;;;;;;7.32;5.07;;;22.00;99.90;;;;;;5019563;28;45167;-59
2023/09/09 01:31:31;;;;;;;10.45;4.80;;;22.00;99.90;;;;;;5021750;28;45241;-59
2023/09/09 01:33:58;;;;;;;4.90;3.70;;;22.00;99.90;;;;;;5024964;28;45123;-59
2023/09/09 01:36:25;;;;;;;6.90;4.47;;;22.00;99.90;;;;;;5015924;28;45444;-58
2023/09/09 01:38:52;;;;;;;4.85;4.20;;;22.00;99.90;;;;;;5015750;28;45114;-58
2023/09/09 01:41:20;;;;;;;6.45;4.13;;;22.10;99.90;;;;;;5021026;28;45069;-59
2023/09/09 01:43:47;;;;;;;6.43;4.47;;;22.10;99.90;;;;;;5025753;28;45243;-59
2023/09/09 01:46:13;;;;;;;7.13;4.70;;;22.10;99.90;;;;;;5018144;28;46238;-59
2023/09/09 01:48:40;;;;;;;5.88;4.55;;;22.00;99.90;;;;;;5021859;28;45119;-59
2023/09/09 01:51:07;;;;;;;7.72;4.70;;;22.00;99.90;;;;;;5022363;28;45304;-59
2023/09/09 01:53:34;;;;;;;7.22;4.72;;;21.90;99.90;;;;;;5019465;28;44765;-59
2023/09/09 01:56:00;;;;;;;8.73;5.03;;;21.80;99.90;;;;;;5015333;28;46288;-59
2023/09/09 01:58:28;;;;;;;7.55;5.57;;;21.60;99.90;;;;;;5023022;28;45088;-59
2023/09/09 02:00:55;;;;;;;7.38;5.45;;;21.50;99.90;;;;;;5024648;28;45061;-59
2023/09/09 02:03:24;;;;;;;5.97;5.07;;;21.50;99.90;;;;;;5014314;28;45128;-59
2023/09/09 02:05:51;;;;;;;7.90;5.60;;;21.60;99.90;;;;;;5020949;28;47285;-59
2023/09/09 02:08:18;;;;;;;6.90;5.03;;;21.60;99.90;;;;;;5021664;28;45182;-59
2023/09/09 02:10:45;;;;;;;8.27;4.97;;;21.60;99.90;;;;;;5018073;28;45115;-59
2023/09/09 02:13:11;;;;;;;8.48;5.28;;;21.80;99.90;;;;;;5023258;28;45132;-59
2023/09/09 02:15:39;;;;;;;8.23;5.95;;;21.80;99.90;;;;;;5016981;28;47664;-59
2023/09/09 02:18:07;;;;;;;7.22;5.18;;;21.90;99.90;;;;;;5019588;28;45595;-59
2023/09/09 02:20:34;;;;;;;7.78;5.03;;;22.00;99.90;;;;;;5024141;28;45194;-59
2023/09/09 02:23:01;;;;;;;7.07;5.20;;;21.90;99.90;;;;;;5022093;28;45320;-59
2023/09/09 02:25:27;;;;;;;7.57;5.55;;;21.90;99.90;;;;;;5023358;28;46224;-59
2023/09/09 02:27:54;;;;;;;8.23;5.72;;;21.80;99.90;;;;;;5014665;28;45144;-59
2023/09/09 02:30:21;;;;;;;6.32;5.25;;;21.80;99.90;;;;;;5020558;28;45187;-59
2023/09/09 02:32:49;;;;;;;8.77;5.82;;;21.80;99.90;;;;;;5018929;28;45400;-59
2023/09/09 02:35:16;;;;;;;7.80;5.30;;;21.80;99.90;;;;;;5019691;28;46126;-58
2023/09/09 02:37:43;;;;;;;8.10;6.22;;;21.80;99.90;;;;;;5014678;28;45108;-59
2023/09/09 02:40:11;;;;;;;8.80;5.55;;;21.70;99.90;;;;;;5020558;28;45217;-59
2023/09/09 02:42:38;;;;;;;8.48;6.38;;;21.70;99.90;;;;;;5016067;28;45092;-59
2023/09/09 02:45:06;;;;;;;7.53;5.22;;;21.60;99.90;;;;;;5017597;28;47978;-59
2023/09/09 02:47:32;;;;;;;10.70;5.88;;;21.70;99.90;;;;;;5021889;28;44586;-59
2023/09/09 02:50:00;;;;;;;9.88;6.00;;;21.70;99.90;;;;;;5024670;28;44764;-59
2023/09/09 02:52:28;;;;;;;8.50;5.82;;;21.70;99.90;;;;;;5023906;28;44659;-59
2023/09/09 02:54:55;;;;;;;10.70;6.68;;;21.60;99.90;;;;;;5019304;28;47971;-59
2023/09/09 02:57:22;;;;;;;7.72;6.18;;;21.50;99.90;;;;;;5019892;28;45071;-59
2023/09/09 02:59:48;;;;;;;11.00;6.28;;;21.50;99.90;;;;;;5022454;28;45127;-59
2023/09/09 03:02:15;;;;;;;13.45;6.63;;;21.40;99.90;;;;;;5021980;28;45143;-59
2023/09/09 03:04:42;;;;;;;9.82;6.45;;;21.40;99.90;;;;;;5023259;28;46245;-59
2023/09/09 03:07:10;;;;;;;8.07;6.10;;;21.40;99.90;;;;;;5013581;28;45184;-58
2023/09/09 03:09:37;;;;;;;11.43;6.43;;;21.40;99.90;;;;;;5016077;28;45086;-59
2023/09/09 03:12:05;;;;;;;8.27;6.07;;;21.40;99.90;;;;;;5021621;28;45219;-59
2023/09/09 03:14:32;;;;;;;10.15;6.80;;;21.50;99.90;;;;;;5022154;28;45328;-59
2023/09/09 03:16:59;;;;;;;8.30;6.47;;;21.40;99.90;;;;;;5020586;28;45030;-59
2023/09/09 03:19:26;;;;;;;7.38;5.82;;;21.40;99.90;;;;;;5019538;28;45131;-59
2023/09/09 03:21:53;;;;;;;9.82;6.25;;;21.40;99.90;;;;;;5010704;28;45307;-59
2023/09/09 03:24:21;;;;;;;11.15;6.82;;;21.40;99.90;;;;;;5021901;28;45257;-59
2023/09/09 03:26:48;;;;;;;9.20;6.78;;;21.40;99.90;;;;;;5020466;28;45368;-59
2023/09/09 03:29:15;;;;;;;11.05;6.93;;;21.30;99.90;;;;;;5019157;28;45037;-59
2023/09/09 03:31:42;;;;;;;8.55;6.30;;;21.40;99.90;;;;;;5019850;28;45104;-59
2023/09/09 03:34:09;;;;;;;8.65;6.45;;;21.40;99.90;;;;;;5018526;28;45142;-59
2023/09/09 03:36:35;;;;;;;12.32;7.15;;;21.40;99.90;;;;;;5020326;28;45383;-59
2023/09/09 03:39:03;;;;;;;8.07;6.15;;;21.40;99.90;;;;;;5016446;28;45270;-58
2023/09/09 03:41:31;;;;;;;8.82;6.45;;;21.30;99.90;;;;;;5020850;28;45325;-58
2023/09/09 03:43:58;;;;;;;9.73;6.82;;;21.30;99.90;;;;;;5011390;28;47613;-59
2023/09/09 03:46:25;;;;;;;10.73;6.75;;;21.20;99.90;;;;;;5018233;28;45299;-59
2023/09/09 03:48:52;;;;;;;8.68;6.22;;;21.20;99.90;;;;;;5023323;28;45195;-58
2023/09/09 03:51:19;;;;;;;7.80;5.97;;;21.10;99.90;;;;;;5019957;28;44734;-58
2023/09/09 03:53:46;;;;;;;6.85;5.63;;;21.10;99.90;;;;;;5019949;28;45392;-58
2023/09/09 03:56:13;;;;;;;8.45;5.53;;;21.50;99.90;;;;;;5009108;28;45061;-58
2023/09/09 03:58:41;;;;;;;7.13;5.30;;;21.80;99.90;;;;;;5016905;28;45188;-58
2023/09/09 04:01:09;;;;;;;7.25;5.43;;;21.90;99.90;;;;;;5015153;28;45116;-58
2023/09/09 04:03:36;;;;;;;7.30;5.28;;;22.00;99.90;;;;;;5018774;28;45306;-59
2023/09/09 04:06:05;;;;;;;6.95;5.40;;;22.10;99.90;;;;;;5023464;28;45210;-59
2023/09/09 04:08:33;;;;;;;7.28;5.30;;;22.10;99.90;;;;;;5022672;28;45168;-59
2023/09/09 04:11:00;;;;;;;7.05;5.70;;;22.20;99.90;;;;;;5015626;28;45123;-59
2023/09/09 04:13:27;;;;;;;8.00;5.60;;;22.20;99.90;;;;;;5021823;28;45234;-58
2023/09/09 04:15:56;;;;;;;6.93;5.13;;;22.20;99.90;;;;;;5021567;28;45108;-59
2023/09/09 04:18:23;;;;;;;11.02;6.60;;;22.20;99.90;;;;;;5021966;28;45147;-59
2023/09/09 04:20:50;;;;;;;8.88;5.70;;;22.20;99.90;;;;;;5026658;28;45090;-58
2023/09/09 04:23:17;;;;;;;5.65;4.60;;;22.20;99.90;;;;;;5026777;28;46199;-59
2023/09/09 04:25:44;;;;;;;7.38;5.18;;;22.20;99.90;;;;;;5024194;28;45109;-58
2023/09/09 04:28:11;;;;;;;8.77;5.63;;;22.30;99.90;;;;;;5020639;28;45213;-59
2023/09/09 04:30:39;;;;;;;7.82;5.22;;;22.20;99.90;;;;;;5020697;28;44650;-58
2023/09/09 04:33:08;;;;;;;8.32;5.68;;;22.30;99.90;;;;;;5023402;28;45388;-58
2023/09/09 04:35:34;;;;;;;10.52;5.95;;;22.30;99.90;;;;;;5024646;28;46262;-58
2023/09/09 04:38:01;;;;;;;8.13;5.55;;;22.30;99.90;;;;;;5023032;28;45116;-58
2023/09/09 04:40:28;;;;;;;9.73;5.47;;;22.30;99.90;;;;;;5023509;28;45060;-58
2023/09/09 04:42:55;;;;;;;9.13;6.10;;;22.20;99.90;;;;;;5025868;28;46362;-58
2023/09/09 04:45:23;;;;;;;7.68;5.50;;;22.20;99.90;;;;;;5014102;28;45038;-58
2023/09/09 04:47:50;;;;;;;8.75;5.57;;;22.20;99.90;;;;;;5025302;28;45203;-58
2023/09/09 04:50:18;;;;;;;7.38;4.97;;;22.20;99.90;;;;;;5025814;28;45110;-58
2023/09/09 04:52:45;;;;;;;6.53;5.15;;;22.30;99.90;;;;;;5023702;28;46184;-58
2023/09/09 04:55:12;;;;;;;6.63;5.07;;;22.30;99.90;;;;;;5025431;28;45082;-58
2023/09/09 04:57:40;;;;;;;7.10;5.20;;;22.30;99.90;;;;;;5016010;28;45192;-58
2023/09/09 05:00:07;;;;;;;7.05;5.72;;;22.30;99.90;;;;;;5025069;28;45108;-58
2023/09/09 05:02:34;;;;;;;8.02;5.13;;;22.30;99.90;;;;;;5021822;28;47377;-58
2023/09/09 05:05:03;;;;;;;5.43;4.28;;;22.30;99.90;;;;;;5022788;28;45113;-58
2023/09/09 05:07:32;;;;;;;5.63;4.90;;;22.30;99.90;;;;;;5025917;28;45162;-58
2023/09/09 05:09:59;;;;;;;6.25;4.78;;;22.30;99.90;;;;;;5021052;28;45322;-58
2023/09/09 05:12:25;;;;;;;6.72;5.07;;;22.20;99.90;;;;;;5017038;28;46276;-58
2023/09/09 05:14:52;;;;;;;5.90;4.35;;;22.20;99.90;;;;;;5024412;28;45064;-58
2023/09/09 05:17:19;;;;;;;6.60;4.38;;;22.20;99.90;;;;;;5022497;28;45190;-58
2023/09/09 05:19:46;;;;;;;7.63;4.70;;;22.20;99.90;;;;;;5023472;28;45429;-59
2023/09/09 05:22:12;;;;;;;5.95;4.30;;;22.20;99.90;;;;;;5016595;28;47109;-59
2023/09/09 05:24:41;;;;;;;6.28;4.15;;;22.20;99.90;;;;;;5020480;28;45235;-58
2023/09/09 05:27:07;;;;;;;7.45;4.53;;;22.20;99.90;;;;;;5022512;28;45329;-58
2023/09/09 05:29:34;;;;;;;7.10;5.35;;;22.20;99.90;;;;;;5014295;28;45139;-58
2023/09/09 05:32:01;;;;;;;6.55;4.85;;;22.20;99.90;;;;;;5016266;28;45111;-58
2023/09/09 05:34:28;;;;;;;5.75;3.92;;;22.30;99.90;;;;;;5017554;28;45165;-58
2023/09/09 05:36:54;;;;;;;7.40;4.57;;;22.20;99.90;;;;;;5019755;28;45250;-58
2023/09/09 05:39:21;;;;;;;6.95;5.15;;;22.30;99.90;;;;;;5012861;28;45489;-58
2023/09/09 05:41:49;;;;;;;5.25;3.95;;;22.20;99.90;;;;;;5019351;28;46292;-58
2023/09/09 05:44:16;;;;;;;7.47;4.85;;;22.20;99.90;;;;;;5023923;28;45103;-58
2023/09/09 05:46:43;;;;;;;5.88;4.50;;;22.30;99.90;;;;;;5020464;28;44682;-59
2023/09/09 05:49:10;;;;;;;7.15;5.50;;;22.30;99.90;;;;;;5016747;28;45135;-58
2023/09/09 05:51:36;;;;;;;5.95;4.70;;;22.30;99.90;;;;;;5024383;28;45120;-58
2023/09/09 05:54:03;;;;;;;7.65;5.13;;;22.30;99.90;;;;;;5019328;28;44558;-58
2023/09/09 05:56:30;;;;;;;7.03;4.82;;;22.30;99.90;;;;;;5006589;28;45238;-58
2023/09/09 05:58:58;;;;;;;6.75;4.63;;;22.30;99.90;;;;;;5021095;28;44727;-58
2023/09/09 06:01:26;;;;;;;7.95;5.05;;;22.30;99.90;;;;;;5017528;28;46392;-58
2023/09/09 06:03:54;;;;;;;8.77;5.15;;;22.20;99.90;;;;;;5020338;28;44620;-58
2023/09/09 06:06:21;;;;;;;6.55;4.45;;;22.20;99.90;;;;;;5023336;28;45248;-58
2023/09/09 06:08:48;;;;;;;9.35;5.47;;;22.20;99.90;;;;;;5017971;28;44662;-58
2023/09/09 06:11:15;;;;;;;7.03;4.70;;;22.20;99.90;;;;;;5013427;28;45174;-58
2023/09/09 06:13:42;;;;;;;8.35;5.47;;;22.20;99.90;;;;;;5013316;28;45153;-58
2023/09/09 06:16:10;;;;;;;7.35;4.78;;;22.20;99.90;;;;;;5009606;28;45096;-58
2023/09/09 06:18:37;;;;;;;5.97;4.38;;;22.20;99.90;;;;;;5008338;28;45096;-58
2023/09/09 06:21:04;;;;;;;4.93;4.03;;;22.20;99.90;;;;;;5012291;28;46318;-58
2023/09/09 06:23:30;;;;;;;7.32;4.15;;;22.30;99.90;;;;;;5012109;28;45239;-58
2023/09/09 06:25:57;;;;;;;6.95;3.90;;;22.30;99.90;;;;;;5012426;28;45096;-58
2023/09/09 06:28:24;;;;;;;6.90;4.35;;;22.30;99.90;;;;;;5006502;28;44711;-58
2023/09/09 06:30:51;;;;;;;5.75;4.20;;;22.30;99.90;;;;;;5004865;28;46371;-58
2023/09/09 06:33:19;;;;;;;6.05;4.15;;;22.30;99.90;;;;;;5015793;28;45153;-58
2023/09/09 06:35:49;;;;;;;6.05;4.50;;;22.40;99.90;;;;;;5021282;28;44628;-58
2023/09/09 06:38:16;;;;;;;5.70;4.07;;;22.30;99.90;;;;;;5011617;28;45167;-58
2023/09/09 06:40:45;;;;;;;6.03;4.75;;;22.40;99.90;;;;;;5018312;28;45184;-58
2023/09/09 06:43:12;;;;;;;7.45;4.38;;;22.40;99.90;;;;;;5010407;28;45275;-58
2023/09/09 06:45:38;;;;;;;5.97;4.32;;;22.40;99.90;;;;;;5020874;28;45185;-57
2023/09/09 06:48:06;;;;;;;6.45;4.82;;;22.40;99.90;;;;;;5022439;28;45130;-58
2023/09/09 06:50:34;;;;;;;6.50;4.95;;;22.30;99.90;;;;;;5019729;28;47830;-57
2023/09/09 06:53:00;;;;;;;6.38;4.68;;;22.30;99.90;;;;;;5018387;28;45186;-58
2023/09/09 06:55:29;;;;;;;6.35;5.55;;;22.40;99.90;;;;;;5015576;28;45142;-58
2023/09/09 06:57:55;;;;;;;5.57;4.22;;;22.40;99.90;;;;;;5021612;28;45113;-58
2023/09/09 07:00:22;;;;;;;6.20;5.32;;;22.40;99.90;;;;;;5026714;28;46221;-58
2023/09/09 07:02:49;;;;;;;9.30;5.15;;;22.40;99.90;;;;;;5020927;28;45168;-58
2023/09/09 07:05:17;;;;;;;6.95;5.10;;;22.40;99.90;;;;;;5011865;28;45278;-58
2023/09/09 07:07:45;;;;;;;7.15;5.10;;;22.30;99.90;;;;;;5021492;28;45273;-58
2023/09/09 07:10:12;;;;;;;6.93;5.38;;;22.40;99.90;;;;;;5020289;28;47316;-57
2023/09/09 07:12:39;;;;;;;4.72;4.05;;;22.40;99.90;;;;;;5014149;28;45200;-58
2023/09/09 07:15:07;;;;;;;6.35;4.72;;;22.40;99.90;;;;;;5007659;28;45151;-58
2023/09/09 07:17:33;;;;;;;9.65;6.05;;;22.40;99.90;;;;;;5013188;28;45470;-58
2023/09/09 07:20:00;;;;;;;6.90;5.15;;;22.40;99.90;;;;;;5023504;28;47189;-58
2023/09/09 07:22:27;;;;;;;7.45;5.65;;;22.40;99.90;;;;;;5009263;28;45461;-58
2023/09/09 07:24:55;;;;;;;6.93;5.03;;;22.40;99.90;;;;;;5017270;28;45104;-57
2023/09/09 07:27:22;;;;;;;8.40;5.50;;;22.40;99.90;;;;;;5020701;28;45425;-58
2023/09/09 07:29:49;;;;;;;7.20;4.95;;;22.40;99.90;;;;;;5023235;28;46288;-58
2023/09/09 07:32:15;;;;;;;17.55;8.85;;;22.70;99.90;;;;;;5021322;28;44808;-58
2023/09/09 07:34:42;;;;;;;16.83;10.88;;;22.50;99.90;;;;;;5013196;28;45216;-57
2023/09/09 07:37:09;;;;;;;17.48;9.68;;;22.40;99.90;;;;;;5009876;28;45108;-56
2023/09/09 07:39:45;;;;;;;15.85;6.57;;;22.10;99.90;;;;;;5011722;28;46267;-57
2023/09/09 07:42:13;;;;;;;6.60;5.00;;;22.30;99.90;;;;;;5007262;28;45348;-57
2023/09/09 07:44:40;;;;;;;24.08;11.85;;;22.60;99.90;;;;;;5016145;28;45053;-56
2023/09/09 07:47:08;;;;;;;18.95;10.95;;;22.20;99.90;;;;;;5017640;28;45120;-57
2023/09/09 07:49:35;;;;;;;8.18;5.70;;;22.10;99.90;;;;;;5014649;28;45546;-56
2023/09/09 07:52:02;;;;;;;7.55;5.00;;;22.40;99.90;;;;;;5014182;28;45104;-56
2023/09/09 07:54:29;;;;;;;6.25;4.68;;;22.60;99.90;;;;;;5015989;28;45118;-56
2023/09/09 07:56:56;;;;;;;19.40;10.65;;;22.70;99.90;;;;;;5016342;28;45251;-56
2023/09/09 07:59:24;;;;;;;8.63;5.20;;;22.70;99.90;;;;;;5011588;28;46324;-56
2023/09/09 08:01:51;;;;;;;6.82;5.05;;;22.80;99.90;;;;;;5006979;28;45102;-56
2023/09/09 08:04:17;;;;;;;14.88;9.32;;;22.90;99.90;;;;;;5022336;28;45314;-56
2023/09/09 08:06:46;;;;;;;9.55;6.15;;;22.80;99.90;;;;;;5023428;28;45250;-56
2023/09/09 08:09:13;;;;;;;7.82;4.88;;;22.80;99.90;;;;;;5016794;28;48255;-56
2023/09/09 08:11:40;;;;;;;15.20;8.23;;;22.80;99.90;;;;;;5014134;28;45249;-56
2023/09/09 08:14:06;;;;;;;9.25;6.13;;;22.80;99.90;;;;;;5022066;28;44640;-56
2023/09/09 08:16:35;;;;;;;10.15;6.50;;;22.70;99.90;;;;;;5018649;28;45219;-56
2023/09/09 08:19:01;;;;;;;10.65;5.78;;;22.60;99.90;;;;;;5015962;28;45157;-56
2023/09/09 08:21:28;;;;;;;25.50;13.52;;;22.70;99.90;;;;;;5015520;28;45108;-56
2023/09/09 08:23:59;;;;;;;13.32;8.02;;;22.60;99.90;;;;;;5023164;28;45175;-56
2023/09/09 08:26:26;;;;;;;8.00;5.05;;;22.60;99.90;;;;;;5019589;28;44911;-56
2023/09/09 08:28:52;;;;;;;7.70;5.22;;;22.70;99.90;;;;;;5011716;28;46466;-56
2023/09/09 08:31:19;;;;;;;11.25;6.68;;;22.80;99.90;;;;;;5015150;28;45131;-57
2023/09/09 08:33:47;;;;;;;7.38;5.20;;;22.80;99.90;;;;;;5020413;28;45070;-57
2023/09/09 08:36:16;;;;;;;7.78;5.85;;;22.90;99.90;;;;;;5020421;28;45092;-57
2023/09/09 08:38:42;;;;;;;10.27;5.15;;;22.90;99.90;;;;;;5022629;28;45252;-56
2023/09/09 08:41:12;;;;;;;7.93;5.05;;;23.00;99.90;;;;;;5019846;28;44620;-56
2023/09/09 08:43:46;;;;;;;24.88;12.43;;;22.90;99.90;;;;;;5017062;28;45150;-56
2023/09/09 08:46:14;;;;;;;18.08;9.73;;;22.80;99.90;;;;;;5014660;28;45104;-56
2023/09/09 08:48:42;;;;;;;22.35;12.20;;;22.80;99.90;;;;;;5020794;28;47300;-56
2023/09/09 08:51:14;;;;;;;11.13;6.88;;;22.70;99.90;;;;;;5012752;28;45237;-56
2023/09/09 08:53:42;;;;;;;17.00;7.93;;;22.70;99.90;;;;;;5026532;28;45242;-56
2023/09/09 08:56:09;;;;;;;15.95;8.85;;;22.80;99.90;;;;;;5018996;28;44779;-56
2023/09/09 08:58:36;;;;;;;12.20;8.07;;;22.70;99.90;;;;;;5025810;28;45261;-58
2023/09/09 09:01:04;;;;;;;9.82;7.25;;;22.60;99.90;;;;;;5019823;28;44595;-57
2023/09/09 09:03:33;;;;;;;20.83;9.38;;;22.60;99.90;;;;;;5018943;28;45277;-57
2023/09/09 09:06:03;;;;;;;10.80;5.72;;;22.60;99.90;;;;;;5014372;28;45057;-57
2023/09/09 09:08:32;;;;;;;10.82;6.38;;;22.60;99.90;;;;;;5017983;28;46551;-58
2023/09/09 09:11:00;;;;;;;9.27;6.47;;;22.60;99.90;;;;;;5023835;28;45283;-52
2023/09/09 09:13:27;;;;;;;22.73;9.93;;;22.60;99.90;;;;;;5017194;28;45097;-54
2023/09/09 09:15:53;;;;;;;15.98;7.35;;;22.60;99.90;;;;;;5022246;28;45168;-55
2023/09/09 09:18:20;;;;;;;12.30;7.07;;;22.60;99.90;;;;;;5022674;28;47517;-55
2023/09/09 09:20:49;;;;;;;17.52;9.25;;;22.60;99.90;;;;;;5017459;28;45025;-55
2023/09/09 09:23:16;;;;;;;19.70;8.45;;;22.60;99.90;;;;;;5015997;28;44623;-55
2023/09/09 09:25:45;;;;;;;14.05;7.55;;;22.50;99.90;;;;;;5012305;28;45178;-56
2023/09/09 09:28:13;;;;;;;9.98;5.85;;;22.50;99.90;;;;;;5014024;28;45289;-55
2023/09/09 09:30:40;;;;;;;8.00;5.60;;;22.60;99.90;;;;;;5014089;28;45209;-55
2023/09/09 09:33:06;;;;;;;10.20;5.93;;;22.60;99.90;;;;;;5016052;28;45326;-55
2023/09/09 09:35:36;;;;;;;10.50;6.28;;;22.60;99.90;;;;;;5015106;28;44775;-56
2023/09/09 09:38:05;;;;;;;8.88;6.15;;;22.60;99.90;;;;;;5018212;28;45435;-56
2023/09/09 09:40:33;;;;;;;9.30;5.05;;;22.60;99.90;;;;;;5014444;28;45198;-55
2023/09/09 09:43:01;;;;;;;14.10;6.72;;;22.60;99.90;;;;;;5013872;28;45149;-55
2023/09/09 09:45:30;;;;;;;7.57;5.05;;;22.50;99.90;;;;;;5011300;28;45088;-56
2023/09/09 09:47:59;;;;;;;8.00;5.07;;;22.50;99.90;;;;;;5018336;28;45207;-56
2023/09/09 09:50:28;;;;;;;8.20;4.82;;;22.60;99.90;;;;;;5015045;28;45235;-56
2023/09/09 09:52:59;;;;;;;6.57;4.97;;;22.60;99.90;;;;;;5015454;28;45150;-55
2023/09/09 09:55:28;;;;;;;10.88;5.18;;;22.60;99.90;;;;;;5013987;28;45052;-55
2023/09/09 09:57:57;;;;;;;9.70;4.78;;;22.60;99.90;;;;;;5013340;28;47669;-56
2023/09/09 10:00:27;;;;;;;8.63;4.97;;;22.60;99.90;;;;;;5012338;28;45088;-55
2023/09/09 10:02:55;;;;;;;7.20;4.32;;;22.60;99.90;;;;;;5015390;28;45228;-56
2023/09/09 10:05:24;;;;;;;8.93;5.40;;;22.60;99.90;;;;;;5018969;28;45287;-55
2023/09/09 10:07:53;;;;;;;11.88;4.65;;;22.60;99.90;;;;;;5017614;28;45255;-55
2023/09/09 10:10:23;;;;;;;7.40;4.30;;;22.60;99.90;;;;;;5015230;28;45134;-55
2023/09/09 10:12:53;;;;;;;5.53;4.03;;;22.60;99.90;;;;;;5014071;28;45174;-55
2023/09/09 10:15:20;;;;;;;15.43;6.15;;;22.60;99.90;;;;;;5011222;28;45453;-55
2023/09/09 10:17:51;;;;;;;8.73;4.50;;;22.60;99.90;;;;;;5011672;28;45254;-55
2023/09/09 10:20:18;;;;;;;6.30;3.97;;;22.60;99.90;;;;;;5023207;28;45048;-55
2023/09/09 10:22:49;;;;;;;13.32;4.63;;;22.60;99.90;;;;;;5019178;28;45204;-55
2023/09/09 10:25:17;;;;;;;7.32;4.30;;;22.60;99.90;;;;;;5013274;28;45173;-55
2023/09/09 10:27:46;;;;;;;6.53;4.47;;;22.60;99.90;;;;;;5015670;28;46551;-55
2023/09/09 10:30:13;;;;;;;10.45;4.28;;;22.60;99.90;;;;;;5016626;28;45211;-55
2023/09/09 10:32:41;;;;;;;5.90;3.70;;;22.60;99.90;;;;;;5013447;28;45120;-56
2023/09/09 10:35:12;;;;;;;22.40;6.88;;;22.60;99.90;;;;;;5013652;28;45273;-55
2023/09/09 10:37:39;;;;;;;17.50;6.47;;;22.60;99.90;;;;;;5015093;28;46315;-55
2023/09/09 10:40:09;;;;;;;7.38;4.65;;;22.70;99.90;;;;;;5008176;28;45065;-56
2023/09/09 10:42:39;;;;;;;18.27;6.30;;;22.70;99.90;;;;;;5016650;28;45412;-55
2023/09/09 10:45:25;;;;;;;6.72;4.63;;;22.70;99.90;;;;;;5021753;28;45056;-55
2023/09/09 10:47:56;;;;;;;12.75;5.65;;;22.70;99.90;;;;;;5000306;28;47245;-55
2023/09/09 10:50:38;;;;;;;10.98;5.50;;;22.80;99.90;;;;;;5015436;28;45078;-55
2023/09/09 10:53:19;;;;;;;10.57;5.65;;;22.80;99.90;;;;;;5018287;28;45222;-55
2023/09/09 10:55:47;;;;;;;12.77;4.75;;;22.70;99.90;;;;;;5014165;28;45366;-56
2023/09/09 10:58:17;;;;;;;14.30;4.70;;;22.70;99.90;;;;;;5016491;28;45318;-56
2023/09/09 11:00:46;;;;;;;14.13;5.10;;;22.80;99.90;;;;;;5022493;28;45165;-55
2023/09/09 11:03:15;;;;;;;9.90;4.90;;;22.80;99.90;;;;;;5021527;28;44493;-57
2023/09/09 11:06:06;;;;;;;11.63;4.45;;;22.70;99.90;;;;;;5019915;28;45407;-58
2023/09/09 11:08:44;;;;;;;18.20;5.38;;;22.70;99.90;;;;;;5020208;28;47048;-57
2023/09/09 11:11:13;;;;;;;13.80;6.10;;;22.70;99.90;;;;;;5004304;28;45220;-57
2023/09/09 11:13:42;;;;;;;14.80;5.43;;;22.80;99.90;;;;;;5020717;28;45290;-56
2023/09/09 11:16:22;;;;;;;13.70;4.65;;;22.80;99.90;;;;;;5019648;28;45403;-56
2023/09/09 11:18:52;;;;;;;9.45;5.00;;;23.10;99.90;;;;;;5020517;28;46530;-56
2023/09/09 11:21:22;;;;;;;19.90;5.70;;;23.10;99.90;;;;;;5022199;28;45096;-57
2023/09/09 11:23:51;;;;;;;10.55;5.88;;;23.10;99.90;;;;;;5022879;28;44655;-56
2023/09/09 11:26:18;;;;;;;10.48;5.53;;;23.30;99.90;;;;;;5012740;28;45338;-56
2023/09/09 11:28:47;;;;;;;24.83;5.57;;;23.30;99.90;;;;;;5014217;28;45308;-57
2023/09/09 11:31:14;;;;;;;18.58;6.50;;;24.30;99.90;;;;;;5014404;28;45118;-57
2023/09/09 11:33:41;;;;;;;13.95;4.90;;;24.90;99.90;;;;;;5016558;28;45214;-57
2023/09/09 11:36:08;;;;;;;12.80;5.60;;;24.70;99.90;;;;;;5021432;28;45380;-56
2023/09/09 11:38:38;;;;;;;13.70;5.97;;;24.50;99.90;;;;;;5018611;28;48518;-57
2023/09/09 11:41:05;;;;;;;26.38;5.70;;;25.10;99.90;;;;;;5016063;28;45425;-57
2023/09/09 11:43:31;;;;;;;26.25;6.07;;;25.50;99.90;;;;;;5010553;28;45417;-57
2023/09/09 11:45:58;;;;;;;16.05;4.95;;;25.80;99.20;;;;;;5020744;28;45214;-57
2023/09/09 11:48:25;;;;;;;10.00;5.53;;;26.10;98.10;;;;;;5016993;28;45163;-57
2023/09/09 11:50:52;;;;;;;16.17;5.35;;;26.00;97.30;;;;;;5019070;28;45195;-56
2023/09/09 11:53:20;;;;;;;16.38;5.32;;;26.00;96.60;;;;;;5021059;28;45152;-56
2023/09/09 11:55:53;;;;;;;12.48;4.95;;;25.90;97.50;;;;;;5017715;28;45195;-57
2023/09/09 11:58:20;;;;;;;14.23;4.97;;;25.00;99.20;;;;;;5020750;28;47685;-57
2023/09/09 12:00:47;;;;;;;17.13;5.15;;;24.90;99.90;;;;;;5014847;28;45192;-57
2023/09/09 12:03:20;;;;;;;10.48;4.82;;;24.50;99.90;;;;;;5011593;28;45077;-57
2023/09/09 12:05:49;;;;;;;22.55;4.78;;;24.20;99.90;;;;;;5011305;28;45181;-57
2023/09/09 12:08:16;;;;;;;13.55;4.93;;;23.90;99.90;;;;;;5016156;28;46023;-57
2023/09/09 12:10:44;;;;;;;19.98;4.68;;;23.70;99.90;;;;;;5005146;28;45283;-58
2023/09/09 12:13:13;;;;;;;17.27;4.43;;;23.60;99.90;;;;;;5020563;28;45223;-58
2023/09/09 12:15:42;;;;;;;13.68;4.53;;;23.60;99.90;;;;;;5021425;28;45104;-58
2023/09/09 12:18:12;;;;;;;8.20;3.90;;;23.60;99.90;;;;;;5018622;28;45330;-58
2023/09/09 12:20:58;;;;;;;9.05;3.85;;;23.70;99.90;;;;;;5022093;28;45246;-58
2023/09/09 12:23:29;;;;;;;8.32;4.30;;;23.60;99.90;;;;;;5023497;28;45226;-58
2023/09/09 12:25:56;;;;;;;15.07;4.10;;;23.60;99.90;;;;;;5022160;28;45162;-58
2023/09/09 12:28:24;;;;;;;8.10;3.30;;;23.50;99.90;;;;;;5019553;28;45429;-58
2023/09/09 12:30:52;;;;;;;15.18;3.92;;;23.60;99.90;;;;;;5023666;28;45195;-56
2023/09/09 12:33:19;;;;;;;10.50;4.07;;;24.60;97.00;;;;;;5021996;28;45275;-57
2023/09/09 12:35:48;;;;;;;9.33;4.10;;;25.60;94.10;;;;;;5019306;28;45108;-57
2023/09/09 12:38:15;;;;;;;14.55;3.95;;;25.60;94.70;;;;;;5023103;28;45205;-57
2023/09/09 12:40:50;;;;;;;12.63;3.70;;;26.10;88.00;;;;;;5022349;28;45235;-57
2023/09/09 12:43:18;;;;;;;11.90;3.60;;;26.30;83.50;;;;;;5016456;28;45252;-58
2023/09/09 12:45:54;;;;;;;8.90;3.47;;;25.70;90.40;;;;;;5023176;28;45498;-58